createdAt,value
2018-09-22T00:01:12.307Z,100322.50
2018-09-22T00:03:36.166Z,100317.90
2018-09-22T00:06:00.098Z,100326.30
2018-09-22T00:08:23.974Z,100321.66
2018-09-22T00:10:47.903Z,100318.16
2018-09-22T00:13:11.825Z,100318.94
2018-09-22T00:15:35.728Z,100320.74
2018-09-22T00:17:59.665Z,100323.59
2018-09-22T00:20:23.580Z,100333.89
2018-09-22T00:22:47.522Z,100323.29
2018-09-22T00:25:11.377Z,100330.06
2018-09-22T00:27:35.235Z,100331.27
2018-09-22T00:29:59.135Z,100331.80
2018-09-22T00:32:23.014Z,100345.63
2018-09-22T00:34:46.879Z,100335.95
2018-09-22T00:37:10.756Z,100338.16
2018-09-22T00:39:34.756Z,100339.52
2018-09-22T00:41:58.601Z,100350.95
2018-09-22T00:44:22.464Z,100345.53
2018-09-22T00:46:46.355Z,100339.84
2018-09-22T00:49:10.212Z,100344.19
2018-09-22T00:51:34.145Z,100338.73
2018-09-22T00:53:58.016Z,100334.05
2018-09-22T00:56:21.861Z,100345.72
2018-09-22T00:58:45.804Z,100349.84
2018-09-22T01:01:09.647Z,100348.73
2018-09-22T01:03:33.525Z,100347.52
2018-09-22T01:05:57.464Z,100355.81
2018-09-22T01:08:21.548Z,100356.52
2018-09-22T01:10:45.646Z,100364.63
2018-09-22T01:13:09.568Z,100356.75
2018-09-22T01:15:33.500Z,100378.81
2018-09-22T01:17:57.404Z,100372.08
2018-09-22T01:20:21.285Z,100382.48
2018-09-22T01:22:45.405Z,100379.30
2018-09-22T01:25:09.289Z,100394.45
2018-09-22T01:27:33.145Z,100402.83
2018-09-22T01:29:57.074Z,100398.98
2018-09-22T01:32:20.948Z,100399.45
2018-09-22T01:34:44.999Z,100415.48
2018-09-22T01:37:08.871Z,100409.23
2018-09-22T01:39:32.747Z,100395.08
2018-09-22T01:41:56.720Z,100387.27
2018-09-22T01:44:20.582Z,100389.41
2018-09-22T01:46:44.599Z,100401.42
2018-09-22T01:49:08.480Z,100396.47
2018-09-22T01:51:33.063Z,100406.97
2018-09-22T01:53:57.051Z,100394.42
2018-09-22T01:56:20.950Z,100403.98
2018-09-22T01:58:44.894Z,100399.66
2018-09-22T02:01:08.776Z,100403.00
2018-09-22T02:03:32.650Z,100409.34
2018-09-22T02:05:56.589Z,100401.98
2018-09-22T02:08:20.461Z,100402.63
2018-09-22T02:10:44.372Z,100410.22
2018-09-22T02:13:08.210Z,100419.69
2018-09-22T02:15:32.090Z,100414.13
2018-09-22T02:17:55.987Z,100426.82
2018-09-22T02:20:19.860Z,100418.66
2018-09-22T02:22:43.827Z,100427.59
2018-09-22T02:25:07.814Z,100438.73
2018-09-22T02:27:31.665Z,100447.08
2018-09-22T02:29:55.552Z,100446.35
2018-09-22T02:32:19.469Z,100446.33
2018-09-22T02:34:43.451Z,100446.92
2018-09-22T02:37:07.325Z,100444.64
2018-09-22T02:39:31.146Z,100439.03
2018-09-22T02:41:55.036Z,100439.56
2018-09-22T02:44:18.899Z,100446.05
2018-09-22T02:46:42.805Z,100439.83
2018-09-22T02:49:06.646Z,100432.97
2018-09-22T02:51:30.693Z,100449.70
2018-09-22T02:53:54.573Z,100456.52
2018-09-22T02:56:18.440Z,100459.02
2018-09-22T02:58:42.344Z,100475.93
2018-09-22T03:01:06.273Z,100468.14
2018-09-22T03:03:30.155Z,100475.34
2018-09-22T03:05:54.000Z,100477.24
2018-09-22T03:08:17.864Z,100478.85
2018-09-22T03:10:41.776Z,100489.22
2018-09-22T03:13:05.624Z,100484.59
2018-09-22T03:15:29.546Z,100478.30
2018-09-22T03:17:53.416Z,100481.35
2018-09-22T03:20:17.288Z,100498.13
2018-09-22T03:22:41.182Z,100492.66
2018-09-22T03:25:05.161Z,100521.47
2018-09-22T03:27:29.056Z,100517.92
2018-09-22T03:29:52.973Z,100515.41
2018-09-22T03:32:16.850Z,100517.52
2018-09-22T03:34:40.736Z,100526.78
2018-09-22T03:37:04.643Z,100531.32
2018-09-22T03:39:28.516Z,100531.55
2018-09-22T03:41:52.371Z,100546.41
2018-09-22T03:44:16.213Z,100541.30
2018-09-22T03:46:40.089Z,100547.45
2018-09-22T03:49:03.947Z,100550.94
2018-09-22T03:51:27.880Z,100556.30
2018-09-22T03:53:51.751Z,100555.78
2018-09-22T03:56:15.600Z,100555.78
2018-09-22T03:58:39.496Z,100563.33
2018-09-22T04:01:03.344Z,100567.23
2018-09-22T04:03:27.283Z,100572.06
2018-09-22T04:05:51.183Z,100572.75
2018-09-22T04:08:15.190Z,100582.64
2018-09-22T04:10:39.045Z,100578.32
2018-09-22T04:13:02.895Z,100584.03
2018-09-22T04:15:26.815Z,100591.83
2018-09-22T04:17:50.671Z,100582.41
2018-09-22T04:20:14.871Z,100588.12
2018-09-22T04:22:38.780Z,100594.33
2018-09-22T04:25:02.626Z,100594.28
2018-09-22T04:27:26.543Z,100598.45
2018-09-22T04:29:50.402Z,100599.47
2018-09-22T04:32:14.430Z,100603.48
2018-09-22T04:34:38.392Z,100591.92
2018-09-22T04:37:02.235Z,100606.77
2018-09-22T04:39:26.223Z,100603.66
2018-09-22T04:41:50.071Z,100606.08
2018-09-22T04:44:14.133Z,100602.88
2018-09-22T04:46:38.183Z,100611.21
2018-09-22T04:49:02.148Z,100613.47
2018-09-22T04:51:26.885Z,100614.25
2018-09-22T04:53:50.786Z,100630.91
2018-09-22T04:56:14.656Z,100627.72
2018-09-22T04:58:38.524Z,100636.81
2018-09-22T05:01:02.389Z,100631.78
2018-09-22T05:03:26.340Z,100642.48
2018-09-22T05:05:50.186Z,100599.16
2018-09-22T05:08:14.035Z,100651.98
2018-09-22T05:10:37.883Z,100653.75
2018-09-22T05:13:01.731Z,100658.59
2018-09-22T05:15:25.719Z,100661.89
2018-09-22T05:17:49.564Z,100659.23
2018-09-22T05:20:13.433Z,100658.63
2018-09-22T05:22:37.353Z,100670.30
2018-09-22T05:25:01.489Z,100673.64
2018-09-22T05:27:25.492Z,100682.75
2018-09-22T05:29:49.370Z,100681.61
2018-09-22T05:32:13.297Z,100684.55
2018-09-22T05:34:38.106Z,100692.48
2018-09-22T05:37:01.976Z,100688.97
2018-09-22T05:39:26.289Z,100699.23
2018-09-22T05:41:50.180Z,100700.95
2018-09-22T05:44:13.997Z,100699.18
2018-09-22T05:46:37.935Z,100693.34
2018-09-22T05:49:01.866Z,100701.95
2018-09-22T05:51:25.824Z,100709.37
2018-09-22T05:53:49.682Z,100710.12
2018-09-22T05:56:13.606Z,100718.39
2018-09-22T05:58:37.483Z,100713.47
2018-09-22T06:01:01.543Z,100715.77
2018-09-22T06:03:25.565Z,100724.33
2018-09-22T06:05:49.381Z,100721.34
2018-09-22T06:08:13.243Z,100722.85
2018-09-22T06:10:37.473Z,100722.06
2018-09-22T06:13:01.307Z,100721.86
2018-09-22T06:15:25.221Z,100736.34
2018-09-22T06:17:49.081Z,100725.11
2018-09-22T06:20:12.941Z,100724.17
2018-09-22T06:22:36.958Z,100733.26
2018-09-22T06:25:00.857Z,100738.80
2018-09-22T06:27:24.749Z,100741.25
2018-09-22T06:29:48.609Z,100737.41
2018-09-22T06:32:12.463Z,100745.44
2018-09-22T06:34:36.352Z,100745.98
2018-09-22T06:37:00.427Z,100752.36
2018-09-22T06:39:24.272Z,100750.02
2018-09-22T06:44:06.684Z,100772.91
2018-09-22T06:46:30.567Z,100754.41
2018-09-22T06:48:54.520Z,100749.71
2018-09-22T06:51:18.458Z,100756.67
2018-09-22T06:53:42.387Z,100760.84
2018-09-22T06:56:06.261Z,100768.54
2018-09-22T06:58:30.157Z,100767.62
2018-09-22T07:00:54.053Z,100768.45
2018-09-22T07:03:17.921Z,100763.22
2018-09-22T07:05:41.825Z,100786.93
2018-09-22T07:08:05.752Z,100776.09
2018-09-22T07:10:29.608Z,100787.47
2018-09-22T07:12:53.534Z,100784.69
2018-09-22T07:15:17.678Z,100795.63
2018-09-22T07:17:41.547Z,100790.82
2018-09-22T07:20:05.426Z,100783.66
2018-09-22T07:22:34.554Z,100778.51
2018-09-22T07:24:58.471Z,100792.45
2018-09-22T07:27:22.302Z,100790.28
2018-09-22T07:29:46.215Z,100791.52
2018-09-22T07:32:10.095Z,100779.59
2018-09-22T07:34:34.013Z,100789.77
2018-09-22T07:36:57.998Z,100789.28
2018-09-22T07:39:21.892Z,100784.64
2018-09-22T07:41:45.750Z,100790.73
2018-09-22T07:44:09.809Z,100784.31
2018-09-22T07:46:33.789Z,100777.72
2018-09-22T07:48:57.683Z,100790.73
2018-09-22T07:51:21.589Z,100786.69
2018-09-22T07:53:45.456Z,100800.14
2018-09-22T07:56:09.352Z,100811.05
2018-09-22T07:58:33.245Z,100814.67
2018-09-22T08:00:57.150Z,100813.16
2018-09-22T08:03:21.008Z,100821.49
2018-09-22T08:05:44.923Z,100813.10
2018-09-22T08:08:08.793Z,100804.88
2018-09-22T08:10:32.658Z,100813.91
2018-09-22T08:12:56.606Z,100812.76
2018-09-22T08:15:20.478Z,100815.23
2018-09-22T08:17:44.405Z,100812.11
2018-09-22T08:20:08.772Z,100817.90
2018-09-22T08:22:32.681Z,100828.70
2018-09-22T08:24:56.604Z,100817.05
2018-09-22T08:27:20.448Z,100819.88
2018-09-22T08:29:44.347Z,100828.41
2018-09-22T08:32:08.258Z,100828.86
2018-09-22T08:34:32.166Z,100826.58
2018-09-22T08:36:56.142Z,100828.26
2018-09-22T08:39:19.963Z,100831.38
2018-09-22T08:41:43.831Z,100833.27
2018-09-22T08:44:07.737Z,100844.46
2018-09-22T08:46:31.625Z,100835.17
2018-09-22T08:48:55.527Z,100844.30
2018-09-22T08:51:19.585Z,100845.45
2018-09-22T08:53:43.431Z,100837.67
2018-09-22T08:56:07.366Z,100841.49
2018-09-22T08:58:31.307Z,100842.14
2018-09-22T09:00:55.203Z,100830.78
2018-09-22T09:03:19.102Z,100843.79
2018-09-22T09:05:43.080Z,100833.58
2018-09-22T09:08:06.948Z,100834.25
2018-09-22T09:10:30.808Z,100848.09
2018-09-22T09:12:54.657Z,100838.94
2018-09-22T09:15:18.578Z,100839.85
2018-09-22T09:17:42.448Z,100842.27
2018-09-22T09:20:06.429Z,100833.37
2018-09-22T09:22:30.314Z,100823.23
2018-09-22T09:24:54.206Z,100834.68
2018-09-22T09:27:18.122Z,100781.81
2018-09-22T09:29:42.009Z,100820.16
2018-09-22T09:32:06.022Z,100820.02
2018-09-22T09:34:29.921Z,100821.55
2018-09-22T09:36:53.748Z,100828.61
2018-09-22T09:39:17.669Z,100822.78
2018-09-22T09:41:41.576Z,100816.27
2018-09-22T09:44:05.589Z,100822.88
2018-09-22T09:46:29.491Z,100816.19
2018-09-22T09:48:53.551Z,100813.60
2018-09-22T09:51:17.660Z,100807.57
2018-09-22T09:53:41.522Z,100824.89
2018-09-22T09:56:05.396Z,100837.60
2018-09-22T09:58:29.329Z,100820.79
2018-09-22T10:00:53.540Z,100810.05
2018-09-22T10:03:18.523Z,100812.81
2018-09-22T10:05:42.632Z,100820.48
2018-09-22T10:08:06.839Z,100814.00
2018-09-22T10:10:30.785Z,100805.39
2018-09-22T10:12:54.712Z,100821.17
2018-09-22T10:15:18.685Z,100818.58
2018-09-22T10:17:42.557Z,100815.78
2018-09-22T10:20:06.496Z,100813.60
2018-09-22T10:22:30.406Z,100807.38
2018-09-22T10:24:54.242Z,100815.03
2018-09-22T10:27:18.130Z,100802.38
2018-09-22T10:29:41.999Z,100801.62
2018-09-22T10:32:06.048Z,100808.00
2018-09-22T10:34:29.989Z,100796.34
2018-09-22T10:36:53.897Z,100791.98
2018-09-22T10:39:17.821Z,100794.15
2018-09-22T10:41:41.762Z,100791.54
2018-09-22T10:44:05.615Z,100794.64
2018-09-22T10:46:29.539Z,100793.06
2018-09-22T10:48:53.440Z,100792.04
2018-09-22T10:51:17.280Z,100790.80
2018-09-22T10:53:41.217Z,100790.88
2018-09-22T10:56:05.123Z,100800.52
2018-09-22T10:58:28.998Z,100801.13
2018-09-22T11:00:52.902Z,100790.64
2018-09-22T11:03:16.891Z,100802.52
2018-09-22T11:05:40.807Z,100790.41
2018-09-22T11:08:04.673Z,100793.49
2018-09-22T11:10:28.608Z,100790.65
2018-09-22T11:12:52.497Z,100794.22
2018-09-22T11:15:16.501Z,100812.22
2018-09-22T11:17:40.389Z,100789.52
2018-09-22T11:20:04.291Z,100800.98
2018-09-22T11:22:28.177Z,100806.51
2018-09-22T11:24:52.067Z,100812.38
2018-09-22T11:27:16.065Z,100800.34
2018-09-22T11:29:39.967Z,100804.97
2018-09-22T11:32:03.865Z,100803.56
2018-09-22T11:34:27.760Z,100783.12
2018-09-22T11:36:51.629Z,100793.63
2018-09-22T11:39:15.624Z,100800.41
2018-09-22T11:41:39.802Z,100783.52
2018-09-22T11:44:03.702Z,100781.89
2018-09-22T11:46:27.599Z,100784.78
2018-09-22T11:48:51.516Z,100770.62
2018-09-22T11:51:15.496Z,100769.09
2018-09-22T11:53:39.474Z,100787.14
2018-09-22T11:56:03.342Z,100788.22
2018-09-22T11:58:27.311Z,100790.82
2018-09-22T12:00:51.228Z,100801.12
2018-09-22T12:03:15.280Z,100814.59
2018-09-22T12:05:39.166Z,100787.16
2018-09-22T12:08:03.095Z,100797.26
2018-09-22T12:10:27.094Z,100775.00
2018-09-22T12:12:50.971Z,100771.48
2018-09-22T12:15:14.889Z,100782.63
2018-09-22T12:17:38.861Z,100768.55
2018-09-22T12:20:02.772Z,100788.30
2018-09-22T12:22:26.676Z,100810.07
2018-09-22T12:24:50.610Z,100797.62
2018-09-22T12:27:14.504Z,100780.94
2018-09-22T12:29:38.520Z,100793.71
2018-09-22T12:32:02.479Z,100795.30
2018-09-22T12:34:26.394Z,100783.45
2018-09-22T12:36:50.315Z,100775.50
2018-09-22T12:39:14.244Z,100781.06
2018-09-22T12:41:38.429Z,100791.84
2018-09-22T12:44:02.306Z,100798.12
2018-09-22T12:46:26.229Z,100788.11
2018-09-22T12:48:50.183Z,100794.45
2018-09-22T12:51:14.125Z,100793.05
2018-09-22T12:53:38.276Z,100791.13
2018-09-22T12:56:02.178Z,100796.77
2018-09-22T12:58:26.107Z,100794.33
2018-09-22T13:00:50.018Z,100790.82
2018-09-22T13:03:13.892Z,100784.38
2018-09-22T13:05:37.919Z,100773.80
2018-09-22T13:08:01.788Z,100775.13
2018-09-22T13:10:25.730Z,100772.70
2018-09-22T13:12:49.648Z,100768.80
2018-09-22T13:15:13.570Z,100782.14
2018-09-22T13:17:37.608Z,100784.02
2018-09-22T13:20:01.500Z,100791.39
2018-09-22T13:22:25.392Z,100778.41
2018-09-22T13:24:49.398Z,100778.06
2018-09-22T13:27:13.279Z,100770.37
2018-09-22T13:29:37.282Z,100786.25
2018-09-22T13:32:01.195Z,100775.03
2018-09-22T13:34:25.080Z,100777.48
2018-09-22T13:36:49.023Z,100786.23
2018-09-22T13:39:13.336Z,100754.97
2018-09-22T13:41:37.254Z,100760.73
2018-09-22T13:44:01.176Z,100760.45
2018-09-22T13:46:25.233Z,100760.80
2018-09-22T13:48:49.166Z,100760.45
2018-09-22T13:51:13.057Z,100780.95
2018-09-22T13:53:36.981Z,100777.84
2018-09-22T13:56:00.853Z,100763.63
2018-09-22T13:58:24.770Z,100776.94
2018-09-22T14:00:48.665Z,100770.36
2018-09-22T14:03:12.596Z,100766.13
2018-09-22T14:05:36.444Z,100760.05
2018-09-22T14:08:00.354Z,100751.41
2018-09-22T14:10:24.266Z,100764.42
2018-09-22T14:12:48.097Z,100760.46
2018-09-22T14:15:18.556Z,100766.72
2018-09-22T14:17:42.470Z,100759.92
2018-09-22T14:20:06.388Z,100744.70
2018-09-22T14:22:30.288Z,100742.36
2018-09-22T14:24:54.348Z,100743.70
2018-09-22T14:27:18.227Z,100748.40
2018-09-22T14:29:42.191Z,100728.77
2018-09-22T14:32:06.136Z,100736.17
2018-09-22T14:34:30.040Z,100733.11
2018-09-22T14:36:53.959Z,100731.78
2018-09-22T14:39:17.794Z,100730.41
2018-09-22T14:41:41.783Z,100754.53
2018-09-22T14:44:05.694Z,100737.98
2018-09-22T14:46:29.609Z,100748.13
2018-09-22T14:48:53.538Z,100737.18
2018-09-22T14:51:17.422Z,100769.02
2018-09-22T14:53:41.267Z,100767.84
2018-09-22T14:56:05.207Z,100776.08
2018-09-22T14:58:29.123Z,100766.72
2018-09-22T15:00:53.031Z,100774.32
2018-09-22T15:03:16.915Z,100787.16
2018-09-22T15:05:40.796Z,100812.88
2018-09-22T15:08:04.691Z,100815.84
2018-09-22T15:10:28.623Z,100816.83
2018-09-22T15:12:52.532Z,100792.73
2018-09-22T15:15:16.438Z,100800.55
2018-09-22T15:17:40.358Z,100795.34
2018-09-22T15:20:04.545Z,100778.23
2018-09-22T15:22:28.458Z,100770.27
2018-09-22T15:24:52.364Z,100773.79
2018-09-22T15:27:16.370Z,100773.23
2018-09-22T15:29:40.247Z,100775.17
2018-09-22T15:32:04.131Z,100789.82
2018-09-22T15:34:28.046Z,100778.23
2018-09-22T15:36:51.993Z,100791.10
2018-09-22T15:39:15.845Z,100795.89
2018-09-22T15:41:39.736Z,100792.73
2018-09-22T15:44:03.672Z,100783.07
2018-09-22T15:46:27.597Z,100800.91
2018-09-22T15:48:51.514Z,100807.71
2018-09-22T15:51:15.387Z,100811.27
2018-09-22T15:53:39.460Z,100812.05
2018-09-22T15:56:03.457Z,100810.53
2018-09-22T15:58:27.883Z,100839.66
2018-09-22T16:00:51.852Z,100792.19
2018-09-22T16:03:15.809Z,100780.02
2018-09-22T16:05:39.739Z,100794.43
2018-09-22T16:08:03.812Z,100818.68
2018-09-22T16:10:27.688Z,100825.34
2018-09-22T16:12:51.744Z,100823.11
2018-09-22T16:15:15.625Z,100806.70
2018-09-22T16:17:39.569Z,100794.07
2018-09-22T16:20:03.517Z,100795.19
2018-09-22T16:22:27.524Z,100802.03
2018-09-22T16:24:51.666Z,100808.26
2018-09-22T16:27:15.582Z,100804.88
2018-09-22T16:29:39.955Z,100806.75
2018-09-22T16:32:03.915Z,100801.05
2018-09-22T16:34:27.796Z,100797.43
2018-09-22T16:36:51.692Z,100792.42
2018-09-22T16:39:15.611Z,100778.06
2018-09-22T16:41:39.733Z,100778.95
2018-09-22T16:44:03.701Z,100751.81
2018-09-22T16:46:27.648Z,100764.14
2018-09-22T16:48:51.571Z,100770.31
2018-09-22T16:51:15.486Z,100762.86
2018-09-22T16:53:39.410Z,100750.05
2018-09-22T16:56:03.336Z,100743.66
2018-09-22T16:58:27.275Z,100649.24
2018-09-22T17:00:51.168Z,100761.38
2018-09-22T17:03:15.078Z,100770.48
2018-09-22T17:05:39.016Z,100788.92
2018-09-22T17:08:02.893Z,100792.22
2018-09-22T17:10:27.361Z,100799.91
2018-09-22T17:12:51.233Z,100777.53
2018-09-22T17:15:15.154Z,100768.66
2018-09-22T17:17:39.426Z,100765.43
2018-09-22T17:20:03.332Z,100767.75
2018-09-22T17:22:27.259Z,100778.69
2018-09-22T17:24:51.176Z,100764.12
2018-09-22T17:27:15.024Z,100753.02
2018-09-22T17:29:38.934Z,100774.33
2018-09-22T17:32:02.888Z,100774.03
2018-09-22T17:34:26.801Z,100767.55
2018-09-22T17:36:50.802Z,100765.80
2018-09-22T17:39:14.700Z,100777.17
2018-09-22T17:41:38.589Z,100767.02
2018-09-22T17:44:02.588Z,100764.70
2018-09-22T17:46:26.529Z,100771.92
2018-09-22T17:48:50.495Z,100782.30
2018-09-22T17:51:14.442Z,100772.26
2018-09-22T17:53:38.391Z,100766.64
2018-09-22T17:56:02.351Z,100754.33
2018-09-22T17:58:26.278Z,100748.97
2018-09-22T18:00:50.419Z,100752.21
2018-09-22T18:03:14.332Z,100748.80
2018-09-22T18:05:38.228Z,100763.43
2018-09-22T18:08:02.133Z,100750.88
2018-09-22T18:10:26.031Z,100744.07
2018-09-22T18:12:49.984Z,100742.46
2018-09-22T18:15:14.015Z,100743.58
2018-09-22T18:17:37.962Z,100751.60
2018-09-22T18:20:01.938Z,100759.98
2018-09-22T18:22:25.861Z,100770.03
2018-09-22T18:24:50.018Z,100769.48
2018-09-22T18:27:14.338Z,100761.98
2018-09-22T18:29:38.320Z,100761.38
2018-09-22T18:32:02.183Z,100721.75
2018-09-22T18:34:26.144Z,100775.80
2018-09-22T18:36:50.229Z,100779.25
2018-09-22T18:39:14.154Z,100780.87
2018-09-22T18:41:38.172Z,100772.91
2018-09-22T18:44:02.121Z,100780.63
2018-09-22T18:46:26.036Z,100772.63
2018-09-22T18:48:50.123Z,100779.51
2018-09-22T18:51:14.011Z,100774.42
2018-09-22T18:53:38.103Z,100771.97
2018-09-22T18:56:01.966Z,100780.01
2018-09-22T18:58:25.972Z,100777.09
2018-09-22T19:00:50.007Z,100784.50
2018-09-22T19:03:13.934Z,100798.06
2018-09-22T19:05:37.899Z,100785.02
2018-09-22T19:08:01.814Z,100780.45
2018-09-22T19:10:25.682Z,100780.46
2018-09-22T19:12:49.853Z,100785.22
2018-09-22T19:15:18.289Z,100780.75
2018-09-22T19:17:49.312Z,100788.55
2018-09-22T19:20:19.671Z,100783.65
2018-09-22T19:22:47.755Z,100790.26
2018-09-22T19:25:13.926Z,100792.08
2018-09-22T19:27:43.900Z,100794.34
2018-09-22T19:30:23.434Z,100798.08
2018-09-22T19:32:52.192Z,100798.77
2018-09-22T19:35:26.217Z,100809.04
2018-09-22T19:37:52.935Z,100809.64
2018-09-22T19:40:20.632Z,100821.95
2018-09-22T19:42:48.402Z,100809.09
2018-09-22T19:45:15.433Z,100800.53
2018-09-22T19:47:47.195Z,100805.11
2018-09-22T19:50:13.775Z,100816.58
2018-09-22T19:52:40.784Z,100814.59
2018-09-22T19:55:04.720Z,100815.69
2018-09-22T19:57:28.662Z,100815.17
2018-09-22T19:59:52.514Z,100815.05
2018-09-22T20:02:16.448Z,100810.59
2018-09-22T20:04:40.359Z,100803.23
2018-09-22T20:07:04.309Z,100818.11
2018-09-22T20:09:28.244Z,100819.06
2018-09-22T20:11:52.146Z,100826.58
2018-09-22T20:14:16.058Z,100821.27
2018-09-22T20:16:39.957Z,100810.02
2018-09-22T20:19:04.207Z,100806.75
2018-09-22T20:21:28.109Z,100813.64
2018-09-22T20:23:52.490Z,100811.02
2018-09-22T20:26:16.387Z,100815.52
2018-09-22T20:28:40.301Z,100802.84
2018-09-22T20:31:04.416Z,100808.14
2018-09-22T20:33:28.439Z,100812.92
2018-09-22T20:35:52.361Z,100809.09
2018-09-22T20:38:16.293Z,100811.20
2018-09-22T20:40:40.190Z,100808.78
2018-09-22T20:43:04.191Z,100811.98
2018-09-22T20:45:28.092Z,100806.69
2018-09-22T20:47:51.988Z,100806.84
2018-09-22T20:50:15.888Z,100804.55
2018-09-22T20:52:39.882Z,100806.16
2018-09-22T20:55:03.798Z,100811.38
2018-09-22T20:57:27.765Z,100808.41
2018-09-22T20:59:51.643Z,100804.32
2018-09-22T21:02:15.536Z,100811.20
2018-09-22T21:04:39.435Z,100808.59
2018-09-22T21:07:03.328Z,100805.78
2018-09-22T21:09:27.362Z,100806.31
2018-09-22T21:11:51.260Z,100807.43
2018-09-22T21:14:15.117Z,100806.91
2018-09-22T21:16:39.056Z,100804.84
2018-09-22T21:19:02.989Z,100815.81
2018-09-22T21:21:26.929Z,100802.13
2018-09-22T21:23:50.869Z,100804.92
2018-09-22T21:26:14.989Z,100799.81
2018-09-22T21:28:38.840Z,100808.75
2018-09-22T21:31:02.761Z,100807.09
2018-09-22T21:33:26.653Z,100805.78
2018-09-22T21:35:50.519Z,100802.85
2018-09-22T21:38:14.476Z,100805.30
2018-09-22T21:40:38.384Z,100802.47
2018-09-22T21:43:02.311Z,100794.84
2018-09-22T21:45:26.470Z,100801.28
2018-09-22T21:47:50.342Z,100794.70
2018-09-22T21:50:14.240Z,100788.02
2018-09-22T21:52:38.170Z,100793.12
2018-09-22T21:55:02.108Z,100787.18
2018-09-22T21:57:25.950Z,100784.09
2018-09-22T21:59:49.816Z,100785.48
2018-09-22T22:02:13.704Z,100784.44
2018-09-22T22:04:37.565Z,100786.17
2018-09-22T22:07:01.596Z,100784.59
2018-09-22T22:09:25.457Z,100780.94
2018-09-22T22:11:49.359Z,100784.59
2018-09-22T22:14:13.290Z,100779.21
2018-09-22T22:16:37.442Z,100783.42
2018-09-22T22:19:01.418Z,100782.48
2018-09-22T22:21:25.379Z,100787.92
2018-09-22T22:23:49.258Z,100781.72
2018-09-22T22:26:13.154Z,100786.77
2018-09-22T22:28:37.047Z,100773.84
2018-09-22T22:31:00.895Z,100771.86
2018-09-22T22:33:24.743Z,100774.25
2018-09-22T22:35:48.684Z,100765.52
2018-09-22T22:38:12.554Z,100763.06
2018-09-22T22:40:36.475Z,100757.77
2018-09-22T22:43:00.343Z,100754.19
2018-09-22T22:45:24.342Z,100753.20
2018-09-22T22:47:48.228Z,100690.29
2018-09-22T22:50:12.064Z,100751.34
2018-09-22T22:52:35.957Z,100759.02
2018-09-22T22:54:59.853Z,100755.92
2018-09-22T22:57:23.708Z,100756.23
2018-09-22T22:59:47.663Z,100755.85
2018-09-22T23:02:11.526Z,100752.19
2018-09-22T23:04:35.455Z,100760.61
2018-09-22T23:06:59.316Z,100753.52
2018-09-22T23:09:23.189Z,100760.98
2018-09-22T23:11:47.113Z,100759.03
2018-09-22T23:14:11.001Z,100755.42
2018-09-22T23:16:34.902Z,100764.97
2018-09-22T23:18:58.871Z,100766.21
2018-09-22T23:21:22.728Z,100767.05
2018-09-22T23:23:46.614Z,100759.30
2018-09-22T23:26:10.859Z,100765.86
2018-09-22T23:28:34.727Z,100765.15
2018-09-22T23:30:58.585Z,100765.16
2018-09-22T23:33:22.512Z,100768.62
2018-09-22T23:35:46.386Z,100768.47
2018-09-22T23:38:10.350Z,100774.03
2018-09-22T23:40:34.239Z,100771.73
2018-09-22T23:42:58.113Z,100779.81
2018-09-22T23:45:21.984Z,100768.62
2018-09-22T23:47:45.903Z,100769.28
2018-09-22T23:50:09.737Z,100767.38
2018-09-22T23:52:33.639Z,100757.11
2018-09-22T23:54:57.486Z,100717.12
2018-09-22T23:57:21.366Z,100771.39
2018-09-22T23:59:45.207Z,100784.09
